createdAt,value
2018-03-30T00:00:15.389Z,99.99
2018-03-30T00:01:15.365Z,99.99
2018-03-30T00:02:15.351Z,99.99
2018-03-30T00:03:15.334Z,99.96
2018-03-30T00:04:15.314Z,99.99
2018-03-30T00:05:15.301Z,99.77
2018-03-30T00:06:15.285Z,99.86
2018-03-30T00:07:15.264Z,99.99
2018-03-30T00:08:15.248Z,99.99
2018-03-30T00:09:15.233Z,99.99
2018-03-30T00:10:15.213Z,99.99
2018-03-30T00:11:15.201Z,99.99
2018-03-30T00:12:15.183Z,99.99
2018-03-30T00:13:15.176Z,99.99
2018-03-30T00:14:15.157Z,98.96
2018-03-30T00:15:15.137Z,99.29
2018-03-30T00:16:15.122Z,99.77
2018-03-30T00:17:15.106Z,99.99
2018-03-30T00:18:15.089Z,99.53
2018-03-30T00:19:15.070Z,98.77
2018-03-30T00:20:15.052Z,98.58
2018-03-30T00:21:15.037Z,98.77
2018-03-30T00:22:15.019Z,98.21
2018-03-30T00:23:15.009Z,98.25
2018-03-30T00:24:14.987Z,98.25
2018-03-30T00:25:14.972Z,98.54
2018-03-30T00:26:14.955Z,98.91
2018-03-30T00:27:14.939Z,99.10
2018-03-30T00:28:14.928Z,99.01
2018-03-30T00:29:14.904Z,99.39
2018-03-30T00:30:14.898Z,99.96
2018-03-30T00:31:14.880Z,99.99
2018-03-30T00:32:14.858Z,99.99
2018-03-30T00:33:14.845Z,99.99
2018-03-30T00:34:14.832Z,99.99
2018-03-30T00:35:14.806Z,99.99
2018-03-30T00:36:14.794Z,99.99
2018-03-30T00:37:14.780Z,99.99
2018-03-30T00:38:14.760Z,99.99
2018-03-30T00:39:14.740Z,99.99
2018-03-30T00:40:14.725Z,99.99
2018-03-30T00:41:14.715Z,99.99
2018-03-30T00:42:14.693Z,99.99
2018-03-30T00:43:14.676Z,99.99
2018-03-30T00:44:14.666Z,99.99
2018-03-30T00:45:14.649Z,99.99
2018-03-30T00:46:14.627Z,99.99
2018-03-30T00:47:14.619Z,99.99
2018-03-30T00:48:14.593Z,99.99
2018-03-30T00:49:14.576Z,99.99
2018-03-30T00:50:14.562Z,99.99
2018-03-30T00:51:14.552Z,99.99
2018-03-30T00:52:14.536Z,99.99
2018-03-30T00:53:14.513Z,99.99
2018-03-30T00:54:14.496Z,98.91
2018-03-30T00:55:14.483Z,99.39
2018-03-30T00:56:14.462Z,99.20
2018-03-30T00:57:14.443Z,99.10
2018-03-30T00:58:14.427Z,99.39
2018-03-30T00:59:14.468Z,99.10
2018-03-30T01:00:14.396Z,99.20
2018-03-30T01:01:14.380Z,99.77
2018-03-30T01:02:14.359Z,99.96
2018-03-30T01:03:14.352Z,99.99
2018-03-30T01:04:14.330Z,99.99
2018-03-30T01:05:14.313Z,99.99
2018-03-30T01:06:14.301Z,99.99
2018-03-30T01:07:14.280Z,99.99
2018-03-30T01:08:14.273Z,99.99
2018-03-30T01:09:14.245Z,99.99
2018-03-30T01:10:14.228Z,99.99
2018-03-30T01:11:14.219Z,99.99
2018-03-30T01:12:14.195Z,99.99
2018-03-30T01:13:14.179Z,99.99
2018-03-30T01:14:14.167Z,99.99
2018-03-30T01:15:14.151Z,99.99
2018-03-30T01:16:14.129Z,99.99
2018-03-30T01:17:14.113Z,99.99
2018-03-30T01:18:14.095Z,99.99
2018-03-30T01:19:14.084Z,99.99
2018-03-30T01:20:14.068Z,99.99
2018-03-30T01:21:14.053Z,99.99
2018-03-30T01:22:14.028Z,99.99
2018-03-30T01:23:14.018Z,99.99
2018-03-30T01:24:13.997Z,99.99
2018-03-30T01:25:13.980Z,99.99
2018-03-30T01:26:13.966Z,99.99
2018-03-30T01:27:13.945Z,99.99
2018-03-30T01:28:13.929Z,99.99
2018-03-30T01:29:13.912Z,99.99
2018-03-30T01:30:13.895Z,99.99
2018-03-30T01:31:13.882Z,99.99
2018-03-30T01:32:13.868Z,99.99
2018-03-30T01:33:13.845Z,99.99
2018-03-30T01:34:13.830Z,99.99
2018-03-30T01:35:13.814Z,99.99
2018-03-30T01:36:13.796Z,99.99
2018-03-30T01:37:13.776Z,99.99
2018-03-30T01:38:13.767Z,99.99
2018-03-30T01:39:13.746Z,99.99
2018-03-30T01:40:13.736Z,99.99
2018-03-30T01:41:13.721Z,99.99
2018-03-30T01:42:13.696Z,99.99
2018-03-30T01:43:13.682Z,99.99
2018-03-30T01:44:13.663Z,99.99
2018-03-30T01:45:13.646Z,99.99
2018-03-30T01:46:13.628Z,99.99
2018-03-30T01:47:13.613Z,99.99
2018-03-30T01:48:13.601Z,99.99
2018-03-30T01:49:13.581Z,99.99
2018-03-30T01:50:13.568Z,99.99
2018-03-30T01:51:13.546Z,99.99
2018-03-30T01:52:13.531Z,99.99
2018-03-30T01:53:13.520Z,99.99
2018-03-30T01:54:13.494Z,99.99
2018-03-30T01:55:13.478Z,99.99
2018-03-30T01:56:13.459Z,99.99
2018-03-30T01:57:13.454Z,99.99
2018-03-30T01:58:13.433Z,99.99
2018-03-30T01:59:13.410Z,99.99
2018-03-30T02:00:13.392Z,99.99
2018-03-30T02:01:13.377Z,99.99
2018-03-30T02:02:13.358Z,99.99
2018-03-30T02:03:13.345Z,99.99
2018-03-30T02:04:13.325Z,99.99
2018-03-30T02:05:13.309Z,99.99
2018-03-30T02:06:13.298Z,99.99
2018-03-30T02:07:13.276Z,99.99
2018-03-30T02:08:13.268Z,99.99
2018-03-30T02:09:13.244Z,99.99
2018-03-30T02:10:13.232Z,99.99
2018-03-30T02:11:13.208Z,99.99
2018-03-30T02:12:13.194Z,99.99
2018-03-30T02:13:13.182Z,99.99
2018-03-30T02:14:13.171Z,99.99
2018-03-30T02:15:13.144Z,99.99
2018-03-30T02:16:13.126Z,99.99
2018-03-30T02:17:13.107Z,99.99
2018-03-30T02:18:13.092Z,99.99
2018-03-30T02:19:13.075Z,99.99
2018-03-30T02:20:13.059Z,99.99
2018-03-30T02:21:13.042Z,99.99
2018-03-30T02:22:13.034Z,99.99
2018-03-30T02:23:13.008Z,99.99
2018-03-30T02:24:12.993Z,99.99
2018-03-30T02:25:12.982Z,99.99
2018-03-30T02:26:12.960Z,99.44
2018-03-30T02:27:12.951Z,99.06
2018-03-30T02:28:12.927Z,98.63
2018-03-30T02:29:12.910Z,97.40
2018-03-30T02:30:12.900Z,96.83
2018-03-30T02:31:12.883Z,96.83
2018-03-30T02:32:12.862Z,96.83
2018-03-30T02:33:12.851Z,96.92
2018-03-30T02:34:12.833Z,97.31
2018-03-30T02:35:12.816Z,96.92
2018-03-30T02:36:12.808Z,96.92
2018-03-30T02:37:12.778Z,97.31
2018-03-30T02:38:12.770Z,96.92
2018-03-30T02:39:12.751Z,96.17
2018-03-30T02:40:12.736Z,97.31
2018-03-30T02:41:12.715Z,97.50
2018-03-30T02:42:12.696Z,96.55
2018-03-30T02:43:12.680Z,96.55
2018-03-30T02:44:12.665Z,96.73
2018-03-30T02:45:12.653Z,96.26
2018-03-30T02:46:12.635Z,97.50
2018-03-30T02:47:12.621Z,96.45
2018-03-30T02:48:12.602Z,95.69
2018-03-30T02:49:12.579Z,96.55
2018-03-30T02:50:12.571Z,96.83
2018-03-30T02:51:12.549Z,97.40
2018-03-30T02:52:12.530Z,96.92
2018-03-30T02:53:12.518Z,96.97
2018-03-30T02:54:12.514Z,97.45
2018-03-30T02:55:12.482Z,98.30
2018-03-30T02:56:12.465Z,98.30
2018-03-30T02:57:12.448Z,98.30
2018-03-30T02:58:12.432Z,99.06
2018-03-30T02:59:12.420Z,99.99
2018-03-30T03:00:12.400Z,99.63
2018-03-30T03:01:12.384Z,98.87
2018-03-30T03:02:12.376Z,99.15
2018-03-30T03:03:12.352Z,98.87
2018-03-30T03:04:12.337Z,99.06
2018-03-30T03:05:12.315Z,99.34
2018-03-30T03:06:12.302Z,98.68
2018-03-30T03:07:12.292Z,99.15
2018-03-30T03:08:12.272Z,98.77
2018-03-30T03:09:12.248Z,98.58
2018-03-30T03:10:12.243Z,99.06
2018-03-30T03:11:12.223Z,99.15
2018-03-30T03:12:12.206Z,98.39
2018-03-30T03:13:12.184Z,98.21
2018-03-30T03:14:12.168Z,98.39
2018-03-30T03:15:12.155Z,98.11
2018-03-30T03:16:12.141Z,98.87
2018-03-30T03:17:12.118Z,98.68
2018-03-30T03:18:12.102Z,97.64
2018-03-30T03:19:12.086Z,98.21
2018-03-30T03:20:12.078Z,98.02
2018-03-30T03:21:12.058Z,99.06
2018-03-30T03:22:12.036Z,98.96
2018-03-30T03:23:12.020Z,99.06
2018-03-30T03:24:12.010Z,99.99
2018-03-30T03:25:11.991Z,99.82
2018-03-30T03:26:11.973Z,99.63
2018-03-30T03:27:11.952Z,99.82
2018-03-30T03:28:11.938Z,99.91
2018-03-30T03:29:11.918Z,99.82
2018-03-30T03:30:11.912Z,99.06
2018-03-30T03:31:11.892Z,99.34
2018-03-30T03:32:11.871Z,98.49
2018-03-30T03:33:11.852Z,98.77
2018-03-30T03:34:11.835Z,98.87
2018-03-30T03:35:11.827Z,98.96
2018-03-30T03:36:11.888Z,98.87
2018-03-30T03:37:11.786Z,98.96
2018-03-30T03:38:11.768Z,98.96
2018-03-30T03:39:11.751Z,99.15
2018-03-30T03:40:11.737Z,99.99
2018-03-30T03:41:11.725Z,99.99
2018-03-30T03:42:11.708Z,99.99
2018-03-30T03:43:11.688Z,99.99
2018-03-30T03:44:11.669Z,99.82
2018-03-30T03:45:11.650Z,99.15
2018-03-30T03:46:11.636Z,98.87
2018-03-30T03:47:11.622Z,98.58
2018-03-30T03:48:11.607Z,98.58
2018-03-30T03:49:11.584Z,99.15
2018-03-30T03:50:11.568Z,98.87
2018-03-30T03:51:11.552Z,99.44
2018-03-30T03:52:11.541Z,99.34
2018-03-30T03:53:11.518Z,99.53
2018-03-30T03:54:11.509Z,99.34
2018-03-30T03:55:11.483Z,98.39
2018-03-30T03:56:11.466Z,98.11
2018-03-30T03:57:11.450Z,98.87
2018-03-30T03:58:11.433Z,98.96
2018-03-30T03:59:11.414Z,98.73
2018-03-30T04:00:11.409Z,97.54
2018-03-30T04:01:11.387Z,97.64
2018-03-30T04:02:11.372Z,96.97
2018-03-30T04:03:11.346Z,96.59
2018-03-30T04:04:11.337Z,96.69
2018-03-30T04:05:11.315Z,96.41
2018-03-30T04:06:11.296Z,97.64
2018-03-30T04:07:11.279Z,97.73
2018-03-30T04:08:11.267Z,97.07
2018-03-30T04:09:11.248Z,97.45
2018-03-30T04:10:11.230Z,98.21
2018-03-30T04:11:11.217Z,97.54
2018-03-30T04:12:11.196Z,98.68
2018-03-30T04:13:11.180Z,97.64
2018-03-30T04:14:11.164Z,97.45
2018-03-30T04:15:11.148Z,97.54
2018-03-30T04:16:11.126Z,98.21
2018-03-30T04:17:11.109Z,96.88
2018-03-30T04:18:11.093Z,97.26
2018-03-30T04:19:11.074Z,96.88
2018-03-30T04:20:11.065Z,97.54
2018-03-30T04:21:11.040Z,98.06
2018-03-30T04:22:11.027Z,99.10
2018-03-30T04:23:11.006Z,98.82
2018-03-30T04:24:10.994Z,99.20
2018-03-30T04:25:10.971Z,99.99
2018-03-30T04:26:10.957Z,99.99
2018-03-30T04:27:10.963Z,99.99
2018-03-30T04:28:10.920Z,99.99
2018-03-30T04:29:10.901Z,99.99
2018-03-30T04:30:10.890Z,99.99
2018-03-30T04:31:10.873Z,99.99
2018-03-30T04:32:10.849Z,99.99
2018-03-30T04:33:10.832Z,99.99
2018-03-30T04:34:10.820Z,99.99
2018-03-30T04:35:10.808Z,99.99
2018-03-30T04:36:10.782Z,99.99
2018-03-30T04:37:10.767Z,99.99
2018-03-30T04:38:10.751Z,99.99
2018-03-30T04:39:10.725Z,99.99
2018-03-30T04:40:10.709Z,99.15
2018-03-30T04:41:10.700Z,98.87
2018-03-30T04:42:10.673Z,99.06
2018-03-30T04:43:10.656Z,97.73
2018-03-30T04:44:10.642Z,98.49
2018-03-30T04:45:10.628Z,98.35
2018-03-30T04:46:10.605Z,98.54
2018-03-30T04:47:10.593Z,98.82
2018-03-30T04:48:10.569Z,98.91
2018-03-30T04:49:10.554Z,99.99
2018-03-30T04:50:10.535Z,99.67
2018-03-30T04:51:10.517Z,99.20
2018-03-30T04:52:10.503Z,99.99
2018-03-30T04:53:10.484Z,99.58
2018-03-30T04:54:10.468Z,99.96
2018-03-30T04:55:10.451Z,99.96
2018-03-30T04:56:10.434Z,99.96
2018-03-30T04:57:10.426Z,99.99
2018-03-30T04:58:10.406Z,99.86
2018-03-30T04:59:10.387Z,99.99
2018-03-30T05:00:10.364Z,99.99
2018-03-30T05:01:10.350Z,99.99
2018-03-30T05:02:10.333Z,99.99
2018-03-30T05:03:10.313Z,99.86
2018-03-30T05:04:10.297Z,99.86
2018-03-30T05:05:10.277Z,99.77
2018-03-30T05:06:10.268Z,99.99
2018-03-30T05:07:10.249Z,99.99
2018-03-30T05:08:10.228Z,99.96
2018-03-30T05:09:10.208Z,99.58
2018-03-30T05:10:10.191Z,99.01
2018-03-30T05:11:10.184Z,99.29
2018-03-30T05:12:10.158Z,99.10
2018-03-30T05:13:10.141Z,98.72
2018-03-30T05:14:10.126Z,99.58
2018-03-30T05:15:10.113Z,98.91
2018-03-30T05:16:10.092Z,98.91
2018-03-30T05:17:10.074Z,99.10
2018-03-30T05:18:10.064Z,99.10
2018-03-30T05:19:10.042Z,99.86
2018-03-30T05:20:10.032Z,99.01
2018-03-30T05:21:10.006Z,98.35
2018-03-30T05:22:09.989Z,98.82
2018-03-30T05:23:09.982Z,99.29
2018-03-30T05:24:09.955Z,99.99
2018-03-30T05:25:09.951Z,99.20
2018-03-30T05:26:09.922Z,98.72
2018-03-30T05:27:09.906Z,99.29
2018-03-30T05:28:09.890Z,99.96
2018-03-30T05:29:09.870Z,99.10
2018-03-30T05:30:09.854Z,98.25
2018-03-30T05:31:09.837Z,98.63
2018-03-30T05:32:09.820Z,98.72
2018-03-30T05:33:09.804Z,99.99
2018-03-30T05:34:09.788Z,99.99
2018-03-30T05:35:09.775Z,99.99
2018-03-30T05:36:09.759Z,99.99
2018-03-30T05:37:09.744Z,99.99
2018-03-30T05:38:09.718Z,98.82
2018-03-30T05:39:09.703Z,98.82
2018-03-30T05:40:09.687Z,98.82
2018-03-30T05:41:09.669Z,99.99
2018-03-30T05:42:09.658Z,98.96
2018-03-30T05:43:09.634Z,99.34
2018-03-30T05:44:09.622Z,98.58
2018-03-30T05:45:09.602Z,98.02
2018-03-30T05:46:09.586Z,99.34
2018-03-30T05:47:09.575Z,98.58
2018-03-30T05:48:09.554Z,97.64
2018-03-30T05:49:09.536Z,97.54
2018-03-30T05:50:09.518Z,97.92
2018-03-30T05:51:09.507Z,98.39
2018-03-30T05:52:09.489Z,97.73
2018-03-30T05:53:09.469Z,98.58
2018-03-30T05:54:09.452Z,98.30
2018-03-30T05:55:09.438Z,98.11
2018-03-30T05:56:09.425Z,98.30
2018-03-30T05:57:09.409Z,98.49
2018-03-30T05:58:09.392Z,98.87
2018-03-30T05:59:09.369Z,98.39
2018-03-30T06:00:09.353Z,96.78
2018-03-30T06:01:09.336Z,95.26
2018-03-30T06:02:09.319Z,96.69
2018-03-30T06:03:09.307Z,97.31
2018-03-30T06:04:09.291Z,96.73
2018-03-30T06:05:09.270Z,97.40
2018-03-30T06:06:09.253Z,97.83
2018-03-30T06:07:09.239Z,95.98
2018-03-30T06:08:09.283Z,95.69
2018-03-30T06:09:09.203Z,95.22
2018-03-30T06:10:09.185Z,95.31
2018-03-30T06:11:09.172Z,95.12
2018-03-30T06:12:09.155Z,95.31
2018-03-30T06:13:09.144Z,94.84
2018-03-30T06:14:09.120Z,95.03
2018-03-30T06:15:09.114Z,95.98
2018-03-30T06:16:09.093Z,94.08
2018-03-30T06:17:09.070Z,93.80
2018-03-30T06:18:09.055Z,92.18
2018-03-30T06:19:09.121Z,92.57
2018-03-30T06:20:09.021Z,93.41
2018-03-30T06:21:09.012Z,93.61
2018-03-30T06:22:08.988Z,92.57
2018-03-30T06:23:08.977Z,91.33
2018-03-30T06:24:08.957Z,92.38
2018-03-30T06:25:08.940Z,92.66
2018-03-30T06:26:08.928Z,92.94
2018-03-30T06:27:08.908Z,94.56
2018-03-30T06:28:08.890Z,93.56
2018-03-30T06:29:08.878Z,94.65
2018-03-30T06:30:08.857Z,95.60
2018-03-30T06:31:08.842Z,94.56
2018-03-30T06:32:08.824Z,94.46
2018-03-30T06:33:08.812Z,93.70
2018-03-30T06:34:08.791Z,93.46
2018-03-30T06:35:08.771Z,94.27
2018-03-30T06:36:08.760Z,93.37
2018-03-30T06:37:08.738Z,94.37
2018-03-30T06:38:08.724Z,94.46
2018-03-30T06:39:08.710Z,93.80
2018-03-30T06:40:08.690Z,93.23
2018-03-30T06:41:08.687Z,93.41
2018-03-30T06:42:08.664Z,93.37
2018-03-30T06:43:08.651Z,94.08
2018-03-30T06:44:08.690Z,95.36
2018-03-30T06:45:08.620Z,94.65
2018-03-30T06:46:08.590Z,94.60
2018-03-30T06:47:08.579Z,94.13
2018-03-30T06:48:08.555Z,95.17
2018-03-30T06:49:08.543Z,95.65
2018-03-30T06:50:08.524Z,94.70
2018-03-30T06:51:08.506Z,96.12
2018-03-30T06:52:08.492Z,95.55
2018-03-30T06:53:08.475Z,96.12
2018-03-30T06:54:08.455Z,95.50
2018-03-30T06:55:08.439Z,96.64
2018-03-30T06:56:08.424Z,95.03
2018-03-30T06:57:08.407Z,96.64
2018-03-30T06:58:08.388Z,95.41
2018-03-30T06:59:08.374Z,94.74
2018-03-30T07:00:08.356Z,92.76
2018-03-30T07:01:08.341Z,91.19
2018-03-30T07:02:08.332Z,92.42
2018-03-30T07:03:08.319Z,92.33
2018-03-30T07:04:08.296Z,91.85
2018-03-30T07:05:08.273Z,91.56
2018-03-30T07:06:08.258Z,91.47
2018-03-30T07:07:08.247Z,91.85
2018-03-30T07:08:08.231Z,92.80
2018-03-30T07:09:08.229Z,91.85
2018-03-30T07:10:08.195Z,91.14
2018-03-30T07:11:08.180Z,90.95
2018-03-30T07:12:08.165Z,92.18
2018-03-30T07:13:08.145Z,92.47
2018-03-30T07:14:08.131Z,92.66
2018-03-30T07:15:08.115Z,92.76
2018-03-30T07:16:08.157Z,91.99
2018-03-30T07:17:08.075Z,92.52
2018-03-30T07:18:08.061Z,92.33
2018-03-30T07:19:08.043Z,93.27
2018-03-30T07:20:08.030Z,92.90
2018-03-30T07:21:08.018Z,91.75
2018-03-30T07:22:07.997Z,91.09
2018-03-30T07:23:07.985Z,90.90
2018-03-30T07:24:07.966Z,89.48
2018-03-30T07:25:07.945Z,91.19
2018-03-30T07:26:07.931Z,90.90
2018-03-30T07:27:07.918Z,91.66
2018-03-30T07:28:07.905Z,90.81
2018-03-30T07:29:07.891Z,90.14
2018-03-30T07:30:07.866Z,89.67
2018-03-30T07:31:07.850Z,89.86
2018-03-30T07:32:07.839Z,90.05
2018-03-30T07:33:07.824Z,91.19
2018-03-30T07:34:07.854Z,90.71
2018-03-30T07:35:07.788Z,89.29
2018-03-30T07:36:07.777Z,89.00
2018-03-30T07:37:07.756Z,88.81
2018-03-30T07:38:07.746Z,89.81
2018-03-30T07:39:07.729Z,89.33
2018-03-30T07:40:07.715Z,89.14
2018-03-30T07:41:07.692Z,88.86
2018-03-30T07:42:07.692Z,87.91
2018-03-30T07:43:07.662Z,88.57
2018-03-30T07:44:07.645Z,89.43
2018-03-30T07:45:07.637Z,89.05
2018-03-30T07:46:07.617Z,89.72
2018-03-30T07:47:07.601Z,88.76
2018-03-30T07:48:07.587Z,88.48
2018-03-30T07:49:07.568Z,89.90
2018-03-30T07:50:07.551Z,88.95
2018-03-30T07:51:07.542Z,88.95
2018-03-30T07:52:07.521Z,87.43
2018-03-30T07:53:07.513Z,86.49
2018-03-30T07:54:07.491Z,87.53
2018-03-30T07:55:07.476Z,87.34
2018-03-30T07:56:07.462Z,88.95
2018-03-30T07:57:07.451Z,88.48
2018-03-30T07:58:07.428Z,87.82
2018-03-30T07:59:07.414Z,87.82
2018-03-30T08:00:07.408Z,87.43
2018-03-30T08:01:07.387Z,87.57
2018-03-30T08:02:07.374Z,86.68
2018-03-30T08:03:07.358Z,86.72
2018-03-30T08:04:07.343Z,87.57
2018-03-30T08:05:07.333Z,86.15
2018-03-30T08:06:07.316Z,86.63
2018-03-30T08:07:07.295Z,85.86
2018-03-30T08:08:07.290Z,85.77
2018-03-30T08:09:07.327Z,85.86
2018-03-30T08:10:07.252Z,86.30
2018-03-30T08:11:07.234Z,86.30
2018-03-30T08:12:07.226Z,86.30
2018-03-30T08:13:07.211Z,87.53
2018-03-30T08:14:07.190Z,88.20
2018-03-30T08:15:07.174Z,89.24
2018-03-30T08:16:07.162Z,89.81
2018-03-30T08:17:07.152Z,89.14
2018-03-30T08:18:07.138Z,88.86
2018-03-30T08:19:07.117Z,88.29
2018-03-30T08:20:07.104Z,87.34
2018-03-30T08:21:07.123Z,87.15
2018-03-30T08:22:07.073Z,87.05
2018-03-30T08:23:07.057Z,87.24
2018-03-30T08:24:07.049Z,86.96
2018-03-30T08:25:07.026Z,86.96
2018-03-30T08:26:07.011Z,86.96
2018-03-30T08:27:06.998Z,86.96
2018-03-30T08:28:06.985Z,87.05
2018-03-30T08:29:06.965Z,86.68
2018-03-30T08:30:06.952Z,87.62
2018-03-30T08:31:06.937Z,87.34
2018-03-30T08:32:06.922Z,88.39
2018-03-30T08:33:06.906Z,87.15
2018-03-30T08:34:06.901Z,87.53
2018-03-30T08:35:06.878Z,86.96
2018-03-30T08:36:06.866Z,87.24
2018-03-30T08:37:06.847Z,86.87
2018-03-30T08:38:06.834Z,87.24
2018-03-30T08:39:06.818Z,87.34
2018-03-30T08:40:06.803Z,87.01
2018-03-30T08:41:06.793Z,86.63
2018-03-30T08:42:06.772Z,86.34
2018-03-30T08:43:06.758Z,87.01
2018-03-30T08:44:06.749Z,87.01
2018-03-30T08:45:06.727Z,87.38
2018-03-30T08:46:06.713Z,88.15
2018-03-30T08:47:06.699Z,86.53
2018-03-30T08:48:06.688Z,85.86
2018-03-30T08:49:06.669Z,85.43
2018-03-30T08:50:06.654Z,85.91
2018-03-30T08:51:06.646Z,84.58
2018-03-30T08:52:06.626Z,85.05
2018-03-30T08:53:06.622Z,84.48
2018-03-30T08:54:06.608Z,83.62
2018-03-30T08:55:06.587Z,84.67
2018-03-30T08:56:06.579Z,84.20
2018-03-30T08:57:06.556Z,84.86
2018-03-30T08:58:06.537Z,84.67
2018-03-30T08:59:06.525Z,83.25
2018-03-30T09:00:06.513Z,83.91
2018-03-30T09:01:06.495Z,83.95
2018-03-30T09:02:06.512Z,82.96
2018-03-30T09:03:06.466Z,82.68
2018-03-30T09:04:06.454Z,83.15
2018-03-30T09:05:06.438Z,82.58
2018-03-30T09:06:06.433Z,83.72
2018-03-30T09:07:06.418Z,83.82
2018-03-30T09:08:06.395Z,84.20
2018-03-30T09:09:06.380Z,85.20
2018-03-30T09:10:06.372Z,84.25
2018-03-30T09:11:06.351Z,84.53
2018-03-30T09:12:06.349Z,84.82
2018-03-30T09:13:06.323Z,84.53
2018-03-30T09:14:06.308Z,84.91
2018-03-30T09:15:06.301Z,84.91
2018-03-30T09:16:06.285Z,84.82
2018-03-30T09:17:06.267Z,84.53
2018-03-30T09:18:06.254Z,85.39
2018-03-30T09:19:06.241Z,84.44
2018-03-30T09:20:06.227Z,85.30
2018-03-30T09:21:06.210Z,84.53
2018-03-30T09:22:06.196Z,84.53
2018-03-30T09:23:06.187Z,84.91
2018-03-30T09:24:06.168Z,84.48
2018-03-30T09:25:06.158Z,84.10
2018-03-30T09:26:06.143Z,85.62
2018-03-30T09:27:06.127Z,86.00
2018-03-30T09:28:06.113Z,84.95
2018-03-30T09:29:06.102Z,84.01
2018-03-30T09:30:06.092Z,84.20
2018-03-30T09:31:06.068Z,83.25
2018-03-30T09:32:06.055Z,83.15
2018-03-30T09:33:06.038Z,83.53
2018-03-30T09:34:06.034Z,83.91
2018-03-30T09:35:06.014Z,84.20
2018-03-30T09:36:05.998Z,84.10
2018-03-30T09:37:05.984Z,84.10
2018-03-30T09:38:05.978Z,83.91
2018-03-30T09:39:05.966Z,84.20
2018-03-30T09:40:05.952Z,84.20
2018-03-30T09:41:05.937Z,84.06
2018-03-30T09:42:05.914Z,84.39
2018-03-30T09:43:05.903Z,84.16
2018-03-30T09:44:05.893Z,83.97
2018-03-30T09:45:05.870Z,84.16
2018-03-30T09:46:05.860Z,84.29
2018-03-30T09:47:05.846Z,84.25
2018-03-30T09:48:05.828Z,84.53
2018-03-30T09:49:05.819Z,84.53
2018-03-30T09:50:05.808Z,84.29
2018-03-30T09:51:05.786Z,84.06
2018-03-30T09:52:05.774Z,84.77
2018-03-30T09:53:05.757Z,84.20
2018-03-30T09:54:05.743Z,84.20
2018-03-30T09:55:05.731Z,84.44
2018-03-30T09:56:05.716Z,84.72
2018-03-30T09:57:05.705Z,84.25
2018-03-30T09:58:05.690Z,83.97
2018-03-30T09:59:05.674Z,84.01
2018-03-30T10:00:05.659Z,84.29
2018-03-30T10:01:05.695Z,83.72
2018-03-30T10:02:05.632Z,83.34
2018-03-30T10:03:05.615Z,82.68
2018-03-30T10:04:05.602Z,82.68
2018-03-30T10:05:05.586Z,82.77
2018-03-30T10:06:05.573Z,82.87
2018-03-30T10:07:05.560Z,82.49
2018-03-30T10:08:05.547Z,82.01
2018-03-30T10:09:05.537Z,82.77
2018-03-30T10:10:05.519Z,83.44
2018-03-30T10:11:05.503Z,83.25
2018-03-30T10:12:05.493Z,83.44
2018-03-30T10:13:05.474Z,82.87
2018-03-30T10:14:05.458Z,83.06
2018-03-30T10:15:05.445Z,83.62
2018-03-30T10:16:05.433Z,82.87
2018-03-30T10:17:05.416Z,82.43
2018-03-30T10:18:05.463Z,82.53
2018-03-30T10:19:05.397Z,82.05
2018-03-30T10:20:05.380Z,82.43
2018-03-30T10:21:05.368Z,81.67
2018-03-30T10:22:05.349Z,81.10
2018-03-30T10:23:05.342Z,81.29
2018-03-30T10:24:05.326Z,81.48
2018-03-30T10:25:05.308Z,81.77
2018-03-30T10:26:05.293Z,81.77
2018-03-30T10:27:05.281Z,81.81
2018-03-30T10:28:05.272Z,81.24
2018-03-30T10:29:05.254Z,79.52
2018-03-30T10:30:05.256Z,80.00
2018-03-30T10:31:05.228Z,80.95
2018-03-30T10:32:05.220Z,80.66
2018-03-30T10:33:05.208Z,80.76
2018-03-30T10:34:05.184Z,80.19
2018-03-30T10:35:05.172Z,80.19
2018-03-30T10:36:05.225Z,79.57
2018-03-30T10:37:05.142Z,79.47
2018-03-30T10:38:05.133Z,78.42
2018-03-30T10:39:05.118Z,78.23
2018-03-30T10:40:05.108Z,78.33
2018-03-30T10:41:05.093Z,78.23
2018-03-30T10:42:05.079Z,78.99
2018-03-30T10:43:05.066Z,78.42
2018-03-30T10:44:05.053Z,78.33
2018-03-30T10:45:05.040Z,78.33
2018-03-30T10:46:05.027Z,77.85
2018-03-30T10:47:05.017Z,78.08
2018-03-30T10:48:05.002Z,77.76
2018-03-30T10:49:04.990Z,77.13
2018-03-30T10:50:04.984Z,77.19
2018-03-30T10:51:04.964Z,76.90
2018-03-30T10:52:04.956Z,77.37
2018-03-30T10:53:04.939Z,77.95
2018-03-30T10:54:04.927Z,77.85
2018-03-30T10:55:04.916Z,78.52
2018-03-30T10:56:04.909Z,78.33
2018-03-30T10:57:04.894Z,77.98
2018-03-30T10:58:04.883Z,77.42
2018-03-30T10:59:04.872Z,76.75
2018-03-30T11:00:04.853Z,76.84
2018-03-30T11:01:04.842Z,76.65
2018-03-30T11:02:04.829Z,77.37
2018-03-30T11:03:04.824Z,77.56
2018-03-30T11:04:04.806Z,78.04
2018-03-30T11:05:04.796Z,77.19
2018-03-30T11:06:04.780Z,77.28
2018-03-30T11:07:04.770Z,77.37
2018-03-30T11:08:04.763Z,77.42
2018-03-30T11:09:04.750Z,76.94
2018-03-30T11:10:04.731Z,76.65
2018-03-30T11:11:04.720Z,76.18
2018-03-30T11:12:04.707Z,76.75
2018-03-30T11:13:04.693Z,76.46
2018-03-30T11:14:04.682Z,76.27
2018-03-30T11:15:04.670Z,76.46
2018-03-30T11:16:04.671Z,76.40
2018-03-30T11:17:04.645Z,76.31
2018-03-30T11:18:04.648Z,75.26
2018-03-30T11:19:04.627Z,73.96
2018-03-30T11:20:04.612Z,73.21
2018-03-30T11:21:04.596Z,72.63
2018-03-30T11:22:04.594Z,72.44
2018-03-30T11:23:04.577Z,71.68
2018-03-30T11:24:04.565Z,71.48
2018-03-30T11:25:04.552Z,72.34
2018-03-30T11:26:04.545Z,72.63
2018-03-30T11:27:04.529Z,72.82
2018-03-30T11:28:04.516Z,72.72
2018-03-30T11:29:04.508Z,72.72
2018-03-30T11:30:04.501Z,73.01
2018-03-30T11:31:04.481Z,72.82
2018-03-30T11:32:04.472Z,73.14
2018-03-30T11:33:04.458Z,72.06
2018-03-30T11:34:04.448Z,71.96
2018-03-30T11:35:04.439Z,72.63
2018-03-30T11:36:04.438Z,72.06
2018-03-30T11:37:04.424Z,72.16
2018-03-30T11:38:04.404Z,71.48
2018-03-30T11:39:04.402Z,71.20
2018-03-30T11:40:04.381Z,71.23
2018-03-30T11:41:04.369Z,71.14
2018-03-30T11:42:04.364Z,69.71
2018-03-30T11:43:04.346Z,69.90
2018-03-30T11:44:04.334Z,69.14
2018-03-30T11:45:04.323Z,69.43
2018-03-30T11:46:04.325Z,69.14
2018-03-30T11:47:04.302Z,69.33
2018-03-30T11:48:04.289Z,69.04
2018-03-30T11:49:04.278Z,70.19
2018-03-30T11:50:04.269Z,69.23
2018-03-30T11:51:04.257Z,67.93
2018-03-30T11:52:04.245Z,67.74
2018-03-30T11:53:04.233Z,68.41
2018-03-30T11:54:04.229Z,68.47
2018-03-30T11:55:04.218Z,68.41
2018-03-30T11:56:04.205Z,68.66
2018-03-30T11:57:04.194Z,68.57
2018-03-30T11:58:04.181Z,68.66
2018-03-30T11:59:04.176Z,68.47
2018-03-30T12:00:04.161Z,69.62
2018-03-30T12:01:04.146Z,70.76
2018-03-30T12:02:04.140Z,71.04
2018-03-30T12:03:04.125Z,70.22
2018-03-30T12:04:04.120Z,69.43
2018-03-30T12:05:04.103Z,69.43
2018-03-30T12:06:04.093Z,69.37
2018-03-30T12:07:04.088Z,69.56
2018-03-30T12:08:04.073Z,69.37
2018-03-30T12:09:04.064Z,70.13
2018-03-30T12:10:04.049Z,69.46
2018-03-30T12:11:04.039Z,68.03
2018-03-30T12:12:04.028Z,68.32
2018-03-30T12:13:04.016Z,68.51
2018-03-30T12:14:04.011Z,68.41
2018-03-30T12:15:03.999Z,68.35
2018-03-30T12:16:03.985Z,68.06
2018-03-30T12:17:03.974Z,68.63
2018-03-30T12:18:03.962Z,68.44
2018-03-30T12:19:03.958Z,68.44
2018-03-30T12:20:03.941Z,68.06
2018-03-30T12:21:03.931Z,67.77
2018-03-30T12:22:03.921Z,67.30
2018-03-30T12:23:03.914Z,67.87
2018-03-30T12:24:03.901Z,67.43
2018-03-30T12:25:03.889Z,67.43
2018-03-30T12:26:03.881Z,67.14
2018-03-30T12:27:03.869Z,66.56
2018-03-30T12:28:03.861Z,65.42
2018-03-30T12:29:03.848Z,65.71
2018-03-30T12:30:03.837Z,66.66
2018-03-30T12:31:03.834Z,65.90
2018-03-30T12:32:03.831Z,65.61
2018-03-30T12:33:03.806Z,66.00
2018-03-30T12:34:03.796Z,66.00
2018-03-30T12:35:03.822Z,66.19
2018-03-30T12:36:03.787Z,65.52
2018-03-30T12:37:03.767Z,65.71
2018-03-30T12:38:03.757Z,65.52
2018-03-30T12:39:03.749Z,66.19
2018-03-30T12:40:03.742Z,66.38
2018-03-30T12:41:03.763Z,65.90
2018-03-30T12:42:03.723Z,66.47
2018-03-30T12:43:03.709Z,66.00
2018-03-30T12:44:03.705Z,66.47
2018-03-30T12:45:03.688Z,65.80
2018-03-30T12:46:03.679Z,65.36
2018-03-30T12:47:03.676Z,65.26
2018-03-30T12:48:03.660Z,65.07
2018-03-30T12:49:03.649Z,64.40
2018-03-30T12:50:03.640Z,65.17
2018-03-30T12:51:03.631Z,64.69
2018-03-30T12:52:03.621Z,63.64